createdAt,value
2023-03-04T00:00:07.220Z,97.68
2023-03-04T00:01:12.571Z,97.13
2023-03-04T00:02:14.393Z,97.67
2023-03-04T00:03:16.123Z,97.77
2023-03-04T00:04:18.219Z,97.40
2023-03-04T00:05:20.075Z,98.74
2023-03-04T00:06:21.647Z,97.57
2023-03-04T00:07:23.230Z,97.97
2023-03-04T00:08:24.860Z,98.03
2023-03-04T00:09:26.603Z,98.44
2023-03-04T00:10:28.323Z,98.92
2023-03-04T00:11:30.497Z,97.79
2023-03-04T00:12:32.143Z,98.83
2023-03-04T00:13:33.775Z,99.17
2023-03-04T00:14:35.432Z,98.31
2023-03-04T00:15:37.041Z,99.31
2023-03-04T00:16:38.628Z,99.80
2023-03-04T00:17:40.207Z,98.67
2023-03-04T00:18:41.844Z,98.64
2023-03-04T00:19:43.570Z,99.19
2023-03-04T00:20:45.230Z,98.38
2023-03-04T00:21:46.806Z,97.96
2023-03-04T00:22:48.431Z,98.12
2023-03-04T00:23:50.169Z,99.14
2023-03-04T00:24:51.757Z,98.72
2023-03-04T00:25:53.378Z,98.31
2023-03-04T00:26:54.945Z,98.12
2023-03-04T00:27:58.294Z,97.79
2023-03-04T00:29:00.972Z,98.72
2023-03-04T00:30:02.654Z,98.72
2023-03-04T00:31:04.376Z,98.94
2023-03-04T00:32:06.186Z,98.73
2023-03-04T00:33:07.868Z,98.64
2023-03-04T00:34:09.503Z,97.54
2023-03-04T00:35:11.089Z,97.17
2023-03-04T00:36:12.656Z,97.57
2023-03-04T00:37:14.321Z,97.61
2023-03-04T00:38:15.971Z,97.31
2023-03-04T00:39:17.650Z,98.20
2023-03-04T00:40:20.442Z,97.98
2023-03-04T00:41:22.140Z,98.11
2023-03-04T00:42:23.790Z,97.54
2023-03-04T00:43:25.422Z,98.03
2023-03-04T00:44:27.068Z,98.12
2023-03-04T00:45:28.715Z,99.03
2023-03-04T00:46:30.354Z,98.62
2023-03-04T00:47:32.460Z,97.80
2023-03-04T00:48:34.140Z,97.79
2023-03-04T00:49:35.829Z,98.00
2023-03-04T00:50:37.801Z,99.17
2023-03-04T00:51:39.456Z,99.54
2023-03-04T00:52:41.066Z,98.54
2023-03-04T00:53:42.689Z,99.13
2023-03-04T00:54:44.302Z,98.54
2023-03-04T00:55:45.960Z,98.93
2023-03-04T00:56:47.643Z,99.04
2023-03-04T00:57:49.252Z,99.67
2023-03-04T00:58:50.858Z,98.36
2023-03-04T00:59:52.473Z,98.13
2023-03-04T01:00:54.117Z,99.01
2023-03-04T01:01:55.802Z,98.84
2023-03-04T01:02:57.446Z,98.61
2023-03-04T01:03:59.092Z,98.41
2023-03-04T01:05:01.652Z,98.74
2023-03-04T01:06:03.386Z,99.40
2023-03-04T01:07:05.253Z,98.27
2023-03-04T01:08:07.000Z,98.31
2023-03-04T01:09:08.650Z,99.05
2023-03-04T01:10:12.455Z,99.45
2023-03-04T01:11:14.131Z,98.67
2023-03-04T01:12:15.726Z,97.28
2023-03-04T01:13:18.248Z,97.88
2023-03-04T01:14:20.205Z,98.57
2023-03-04T01:15:21.818Z,99.27
2023-03-04T01:16:23.469Z,98.80
2023-03-04T01:17:25.114Z,98.30
2023-03-04T01:18:27.804Z,98.74
2023-03-04T01:19:29.301Z,99.49
2023-03-04T01:20:30.977Z,98.33
2023-03-04T01:21:32.584Z,99.09
2023-03-04T01:22:34.199Z,98.75
2023-03-04T01:23:35.869Z,98.28
2023-03-04T01:24:37.461Z,98.10
2023-03-04T01:25:41.015Z,98.26
2023-03-04T01:26:42.617Z,98.28
2023-03-04T01:27:44.218Z,98.34
2023-03-04T01:28:45.905Z,99.03
2023-03-04T01:29:47.513Z,98.44
2023-03-04T01:30:49.241Z,97.82
2023-03-04T01:31:51.656Z,98.84
2023-03-04T01:32:55.086Z,99.06
2023-03-04T01:33:56.694Z,97.62
2023-03-04T01:34:58.418Z,98.38
2023-03-04T01:36:00.217Z,98.12
2023-03-04T01:37:02.318Z,97.86
2023-03-04T01:38:05.179Z,98.02
2023-03-04T01:39:06.920Z,97.73
2023-03-04T01:40:09.537Z,98.09
2023-03-04T01:41:13.761Z,97.54
2023-03-04T01:42:19.321Z,98.18
2023-03-04T01:43:25.930Z,98.50
2023-03-04T01:44:27.833Z,98.43
2023-03-04T01:45:31.620Z,98.33
2023-03-04T01:46:33.463Z,99.06
2023-03-04T01:47:36.029Z,98.10
2023-03-04T01:48:38.379Z,99.04
2023-03-04T01:49:40.269Z,97.74
2023-03-04T01:50:41.922Z,98.14
2023-03-04T01:51:49.589Z,97.69
2023-03-04T01:52:51.184Z,97.11
2023-03-04T01:53:54.899Z,97.23
2023-03-04T01:54:57.574Z,97.84
2023-03-04T01:56:04.961Z,98.31
2023-03-04T01:57:18.027Z,97.41
2023-03-04T01:58:19.726Z,98.21
2023-03-04T01:59:23.634Z,97.79
2023-03-04T02:00:33.556Z,97.12
2023-03-04T02:01:35.237Z,97.09
2023-03-04T02:02:36.839Z,97.23
2023-03-04T02:03:39.112Z,96.44
2023-03-04T02:04:41.768Z,97.18
2023-03-04T02:05:44.556Z,96.79
2023-03-04T02:06:47.183Z,97.43
2023-03-04T02:07:49.129Z,97.50
2023-03-04T02:08:50.643Z,97.99
2023-03-04T02:09:52.207Z,98.18
2023-03-04T02:10:54.298Z,98.59
2023-03-04T02:11:56.451Z,97.36
2023-03-04T02:12:59.894Z,96.71
2023-03-04T02:14:01.605Z,96.71
2023-03-04T02:15:03.696Z,96.22
2023-03-04T02:16:06.673Z,97.08
2023-03-04T02:17:14.345Z,96.85
2023-03-04T02:18:23.936Z,97.05
2023-03-04T02:19:42.876Z,96.85
2023-03-04T02:20:52.346Z,98.26
2023-03-04T02:21:54.128Z,98.01
2023-03-04T02:23:09.558Z,98.00
2023-03-04T02:24:27.473Z,97.93
2023-03-04T02:25:35.444Z,97.56
2023-03-04T02:26:37.149Z,98.13
2023-03-04T02:27:38.730Z,98.20
2023-03-04T02:28:40.856Z,97.81
2023-03-04T02:29:42.463Z,97.77
2023-03-04T02:30:44.143Z,97.36
2023-03-04T02:31:48.329Z,98.74
2023-03-04T02:32:50.007Z,98.78
2023-03-04T02:33:54.527Z,97.61
2023-03-04T02:34:56.339Z,98.53
2023-03-04T02:35:58.002Z,99.46
2023-03-04T02:37:00.155Z,98.13
2023-03-04T02:38:03.762Z,97.81
2023-03-04T02:39:11.587Z,97.70
2023-03-04T02:40:17.231Z,98.36
2023-03-04T02:41:22.008Z,97.89
2023-03-04T02:42:24.299Z,98.26
2023-03-04T02:43:26.320Z,97.88
2023-03-04T02:44:30.519Z,98.33
2023-03-04T02:45:48.254Z,98.13
2023-03-04T02:46:51.248Z,98.76
2023-03-04T02:47:52.834Z,98.22
2023-03-04T02:48:54.459Z,98.32
2023-03-04T02:49:56.516Z,98.25
2023-03-04T02:50:58.149Z,98.78
2023-03-04T02:52:03.549Z,98.54
2023-03-04T02:53:06.621Z,98.09
2023-03-04T02:54:22.227Z,97.98
2023-03-04T02:55:23.934Z,98.03
2023-03-04T02:56:25.597Z,98.17
2023-03-04T02:57:27.236Z,98.91
2023-03-04T02:58:29.858Z,98.46
2023-03-04T02:59:31.542Z,97.83
2023-03-04T03:00:33.334Z,97.96
2023-03-04T03:01:34.958Z,97.24
2023-03-04T03:02:36.687Z,97.79
2023-03-04T03:03:38.346Z,97.27
2023-03-04T03:04:40.669Z,97.81
2023-03-04T03:05:45.703Z,97.51
2023-03-04T03:06:47.289Z,97.39
2023-03-04T03:07:49.752Z,98.70
2023-03-04T03:08:51.402Z,98.82
2023-03-04T03:09:53.665Z,98.73
2023-03-04T03:10:55.267Z,99.24
2023-03-04T03:11:58.041Z,99.43
2023-03-04T03:12:59.697Z,99.14
2023-03-04T03:14:02.094Z,98.96
2023-03-04T03:15:03.993Z,98.71
2023-03-04T03:16:05.874Z,98.50
2023-03-04T03:17:07.480Z,98.13
2023-03-04T03:18:10.428Z,98.58
2023-03-04T03:19:11.959Z,98.66
2023-03-04T03:20:14.961Z,98.37
2023-03-04T03:21:16.573Z,98.41
2023-03-04T03:22:19.235Z,97.70
2023-03-04T03:23:21.020Z,97.58
2023-03-04T03:24:22.558Z,96.69
2023-03-04T03:25:24.598Z,96.74
2023-03-04T03:26:28.504Z,97.85
2023-03-04T03:27:30.163Z,98.32
2023-03-04T03:28:31.892Z,98.99
2023-03-04T03:29:35.005Z,99.32
2023-03-04T03:30:36.559Z,99.15
2023-03-04T03:31:41.281Z,98.68
2023-03-04T03:32:42.877Z,97.87
2023-03-04T03:33:44.736Z,98.88
2023-03-04T03:34:46.562Z,99.10
2023-03-04T03:35:48.263Z,98.92
2023-03-04T03:36:50.029Z,99.07
2023-03-04T03:37:51.768Z,99.52
2023-03-04T03:38:53.439Z,98.45
2023-03-04T03:39:54.977Z,98.38
2023-03-04T03:40:56.656Z,98.29
2023-03-04T03:41:58.239Z,97.09
2023-03-04T03:42:59.938Z,96.79
2023-03-04T03:44:01.868Z,97.19
2023-03-04T03:45:03.837Z,96.82
2023-03-04T03:46:05.512Z,97.20
2023-03-04T03:47:07.328Z,98.09
2023-03-04T03:48:08.937Z,97.92
2023-03-04T03:49:10.520Z,98.43
2023-03-04T03:50:12.542Z,98.83
2023-03-04T03:51:14.134Z,98.77
2023-03-04T03:52:15.742Z,98.28
2023-03-04T03:53:17.379Z,98.20
2023-03-04T03:54:18.994Z,97.58
2023-03-04T03:55:20.735Z,97.89
2023-03-04T03:56:22.363Z,97.87
2023-03-04T03:57:24.059Z,97.99
2023-03-04T03:58:26.953Z,98.06
2023-03-04T03:59:28.679Z,97.69
2023-03-04T04:00:30.544Z,98.06
2023-03-04T04:01:33.588Z,97.86
2023-03-04T04:02:35.338Z,98.13
2023-03-04T04:03:36.933Z,99.14
2023-03-04T04:04:38.557Z,98.26
2023-03-04T04:05:40.114Z,98.24
2023-03-04T04:06:41.717Z,98.10
2023-03-04T04:07:43.347Z,98.58
2023-03-04T04:08:44.993Z,98.37
2023-03-04T04:09:46.654Z,98.51
2023-03-04T04:10:48.296Z,97.73
2023-03-04T04:11:49.852Z,98.39
2023-03-04T04:12:51.588Z,98.04
2023-03-04T04:13:53.168Z,98.08
2023-03-04T04:14:54.788Z,97.43
2023-03-04T04:15:56.453Z,98.74
2023-03-04T04:16:58.071Z,98.45
2023-03-04T04:17:59.648Z,97.60
2023-03-04T04:19:01.315Z,97.01
2023-03-04T04:20:03.148Z,97.01
2023-03-04T04:21:05.116Z,97.07
2023-03-04T04:22:08.258Z,97.38
2023-03-04T04:23:09.843Z,96.45
2023-03-04T04:24:11.505Z,96.84
2023-03-04T04:25:13.190Z,97.51
2023-03-04T04:26:14.819Z,97.54
2023-03-04T04:27:16.429Z,97.57
2023-03-04T04:28:18.020Z,97.33
2023-03-04T04:29:19.794Z,97.53
2023-03-04T04:30:21.425Z,97.35
2023-03-04T04:31:23.029Z,97.03
2023-03-04T04:32:24.660Z,97.76
2023-03-04T04:33:26.443Z,97.24
2023-03-04T04:34:28.090Z,97.10
2023-03-04T04:35:29.730Z,97.34
2023-03-04T04:36:31.453Z,97.83
2023-03-04T04:37:33.397Z,97.42
2023-03-04T04:38:35.064Z,97.50
2023-03-04T04:39:36.677Z,97.60
2023-03-04T04:40:38.266Z,98.39
2023-03-04T04:41:42.031Z,98.91
2023-03-04T04:42:43.641Z,99.13
2023-03-04T04:43:45.284Z,99.27
2023-03-04T04:44:47.084Z,99.38
2023-03-04T04:45:48.698Z,99.01
2023-03-04T04:46:50.326Z,98.65
2023-03-04T04:47:53.169Z,98.42
2023-03-04T04:48:54.799Z,98.66
2023-03-04T04:49:56.457Z,98.87
2023-03-04T04:50:58.169Z,98.48
2023-03-04T04:51:59.743Z,98.45
2023-03-04T04:53:01.322Z,98.58
2023-03-04T04:54:03.754Z,98.99
2023-03-04T04:55:05.658Z,98.47
2023-03-04T04:56:18.479Z,97.35
2023-03-04T04:57:20.056Z,97.35
2023-03-04T04:58:21.653Z,97.41
2023-03-04T04:59:23.373Z,97.75
2023-03-04T05:00:25.143Z,96.90
2023-03-04T05:01:27.200Z,97.11
2023-03-04T05:02:28.833Z,97.44
2023-03-04T05:03:30.511Z,97.35
2023-03-04T05:04:32.132Z,97.43
2023-03-04T05:05:33.750Z,97.19
2023-03-04T05:06:35.332Z,96.95
2023-03-04T05:07:37.028Z,97.62
2023-03-04T05:08:39.024Z,97.32
2023-03-04T05:09:40.633Z,96.38
2023-03-04T05:10:42.283Z,97.18
2023-03-04T05:11:43.840Z,97.38
2023-03-04T05:12:45.469Z,98.52
2023-03-04T05:13:48.135Z,97.12
2023-03-04T05:14:49.595Z,96.62
2023-03-04T05:15:53.268Z,95.85
2023-03-04T05:16:54.945Z,96.78
2023-03-04T05:17:57.459Z,98.22
2023-03-04T05:18:59.077Z,97.96
2023-03-04T05:20:00.712Z,97.75
2023-03-04T05:21:03.677Z,96.59
2023-03-04T05:22:05.256Z,97.39
2023-03-04T05:23:06.881Z,97.87
2023-03-04T05:24:08.523Z,97.79
2023-03-04T05:25:10.688Z,97.95
2023-03-04T05:26:15.991Z,97.59
2023-03-04T05:27:18.062Z,98.03
2023-03-04T05:28:19.909Z,96.83
2023-03-04T05:29:21.679Z,97.12
2023-03-04T05:30:23.289Z,96.65
2023-03-04T05:31:24.986Z,95.87
2023-03-04T05:32:27.368Z,96.54
2023-03-04T05:33:29.148Z,98.70
2023-03-04T05:34:30.804Z,99.29
2023-03-04T05:35:32.445Z,98.48
2023-03-04T05:36:34.066Z,97.88
2023-03-04T05:37:35.608Z,97.48
2023-03-04T05:38:37.204Z,97.73
2023-03-04T05:39:38.817Z,96.61
2023-03-04T05:40:41.089Z,96.91
2023-03-04T05:41:42.679Z,97.27
2023-03-04T05:42:44.274Z,97.29
2023-03-04T05:43:45.988Z,97.59
2023-03-04T05:44:47.616Z,97.54
2023-03-04T05:45:49.788Z,97.58
2023-03-04T05:46:51.440Z,98.17
2023-03-04T05:47:53.817Z,97.45
2023-03-04T05:48:55.470Z,97.44
2023-03-04T05:49:58.061Z,97.34
2023-03-04T05:51:00.943Z,98.35
2023-03-04T05:52:02.527Z,98.22
2023-03-04T05:53:04.182Z,98.69
2023-03-04T05:54:05.741Z,98.27
2023-03-04T05:55:07.816Z,97.60
2023-03-04T05:56:11.120Z,97.16
2023-03-04T05:57:12.697Z,96.80
2023-03-04T05:58:14.659Z,96.58
2023-03-04T05:59:20.502Z,96.96
2023-03-04T06:00:22.122Z,96.60
2023-03-04T06:01:23.784Z,96.79
2023-03-04T06:02:25.431Z,97.21
2023-03-04T06:03:27.125Z,97.21
2023-03-04T06:04:28.734Z,97.00
2023-03-04T06:05:30.267Z,97.53
2023-03-04T06:06:31.884Z,97.33
2023-03-04T06:07:33.755Z,97.53
2023-03-04T06:08:35.362Z,97.61
2023-03-04T06:09:37.083Z,97.45
2023-03-04T06:10:40.777Z,97.06
2023-03-04T06:11:42.650Z,98.16
2023-03-04T06:12:44.334Z,98.67
2023-03-04T06:13:45.962Z,97.05
2023-03-04T06:14:47.677Z,97.14
2023-03-04T06:15:54.709Z,97.32
2023-03-04T06:16:56.486Z,97.81
2023-03-04T06:17:58.141Z,97.84
2023-03-04T06:18:59.757Z,98.19
2023-03-04T06:20:01.349Z,98.12
2023-03-04T06:21:03.450Z,96.99
2023-03-04T06:22:05.705Z,97.24
2023-03-04T06:23:07.290Z,97.29
2023-03-04T06:24:09.032Z,97.01
2023-03-04T06:25:10.638Z,97.56
2023-03-04T06:26:15.451Z,94.98
2023-03-04T06:27:17.260Z,94.52
2023-03-04T06:28:18.836Z,95.70
2023-03-04T06:29:20.566Z,96.81
2023-03-04T06:30:23.832Z,96.51
2023-03-04T06:31:25.573Z,95.72
2023-03-04T06:32:27.357Z,94.48
2023-03-04T06:33:29.024Z,93.23
2023-03-04T06:34:30.698Z,94.13
2023-03-04T06:35:32.405Z,94.34
2023-03-04T06:36:34.358Z,93.30
2023-03-04T06:37:35.948Z,92.33
2023-03-04T06:38:37.570Z,91.71
2023-03-04T06:39:39.144Z,92.34
2023-03-04T06:40:40.732Z,92.45
2023-03-04T06:41:42.339Z,92.90
2023-03-04T06:42:44.064Z,92.11
2023-03-04T06:43:45.678Z,92.40
2023-03-04T06:44:49.506Z,93.02
2023-03-04T06:45:51.260Z,91.71
2023-03-04T06:46:52.894Z,90.39
2023-03-04T06:47:54.590Z,91.64
2023-03-04T06:48:56.702Z,92.65
2023-03-04T06:49:58.401Z,93.40
2023-03-04T06:51:06.756Z,91.26
2023-03-04T06:52:11.211Z,91.29
2023-03-04T06:53:12.855Z,91.10
2023-03-04T06:54:14.444Z,91.79
2023-03-04T06:55:16.136Z,92.19
2023-03-04T06:56:17.825Z,91.30
2023-03-04T06:57:19.542Z,90.45
2023-03-04T06:58:21.314Z,92.59
2023-03-04T06:59:23.383Z,90.40
2023-03-04T07:00:25.230Z,91.36
2023-03-04T07:01:28.808Z,90.47
2023-03-04T07:02:30.783Z,88.93
2023-03-04T07:03:32.355Z,90.27
2023-03-04T07:04:34.173Z,87.97
2023-03-04T07:05:35.886Z,87.84
2023-03-04T07:06:37.563Z,86.86
2023-03-04T07:07:39.233Z,86.33
2023-03-04T07:08:41.686Z,86.96
2023-03-04T07:09:43.376Z,85.91
2023-03-04T07:10:45.069Z,83.75
2023-03-04T07:11:46.841Z,82.08
2023-03-04T07:12:48.534Z,77.13
2023-03-04T07:13:51.046Z,77.58
2023-03-04T07:14:52.576Z,77.59
2023-03-04T07:15:54.267Z,75.93
2023-03-04T07:16:56.078Z,73.65
2023-03-04T07:17:57.725Z,73.44
2023-03-04T07:18:59.712Z,70.38
2023-03-04T07:20:01.398Z,71.09
2023-03-04T07:21:03.733Z,69.10
2023-03-04T07:22:05.325Z,70.59
2023-03-04T07:23:06.923Z,71.22
2023-03-04T07:24:08.514Z,72.59
2023-03-04T07:25:10.358Z,72.26
2023-03-04T07:26:12.100Z,72.29
2023-03-04T07:27:13.787Z,72.50
2023-03-04T07:28:15.391Z,74.55
2023-03-04T07:29:17.029Z,74.26
2023-03-04T07:30:18.712Z,73.34
2023-03-04T07:31:24.039Z,75.11
2023-03-04T07:32:25.759Z,74.62
2023-03-04T07:33:27.360Z,74.32
2023-03-04T07:34:29.004Z,71.92
2023-03-04T07:35:30.559Z,72.09
2023-03-04T07:36:33.517Z,71.48
2023-03-04T07:37:35.189Z,69.63
2023-03-04T07:38:36.968Z,69.85
2023-03-04T07:39:38.720Z,68.86
2023-03-04T07:40:40.480Z,67.17
2023-03-04T07:41:42.204Z,66.05
2023-03-04T07:42:44.340Z,67.59
2023-03-04T07:43:50.297Z,66.91
2023-03-04T07:44:52.018Z,70.29
2023-03-04T07:45:58.884Z,69.29
2023-03-04T07:47:00.543Z,65.77
2023-03-04T07:48:02.139Z,68.24
2023-03-04T07:49:04.211Z,63.83
2023-03-04T07:50:06.291Z,65.34
2023-03-04T07:51:11.238Z,66.99
2023-03-04T07:52:14.540Z,66.41
2023-03-04T07:53:16.155Z,63.56
2023-03-04T07:54:20.148Z,62.88
2023-03-04T07:55:21.816Z,61.90
2023-03-04T07:56:25.990Z,61.80
2023-03-04T07:57:27.575Z,61.94
2023-03-04T07:58:29.321Z,64.60
2023-03-04T07:59:30.962Z,66.11
2023-03-04T08:00:32.640Z,65.37
2023-03-04T08:01:36.849Z,65.75
2023-03-04T08:02:38.498Z,68.02
2023-03-04T08:03:40.326Z,69.00
2023-03-04T08:04:41.880Z,69.87
2023-03-04T08:05:43.510Z,69.20
2023-03-04T08:06:45.276Z,69.20
2023-03-04T08:07:46.907Z,67.51
2023-03-04T08:08:49.603Z,67.11
2023-03-04T08:09:51.182Z,65.70
2023-03-04T08:10:52.849Z,65.62
2023-03-04T08:11:54.464Z,63.80
2023-03-04T08:12:56.099Z,63.96
2023-03-04T08:13:58.397Z,64.24
2023-03-04T08:15:00.027Z,63.94
2023-03-04T08:16:02.067Z,62.00
2023-03-04T08:17:03.751Z,63.28
2023-03-04T08:18:05.382Z,62.35
2023-03-04T08:19:07.571Z,61.65
2023-03-04T08:20:10.653Z,61.22
2023-03-04T08:21:12.945Z,60.66
2023-03-04T08:22:14.656Z,58.88
2023-03-04T08:23:16.281Z,59.64
2023-03-04T08:24:17.880Z,59.58
2023-03-04T08:25:19.558Z,57.29
2023-03-04T08:26:24.395Z,56.82
2023-03-04T08:27:25.942Z,55.65
2023-03-04T08:28:27.544Z,54.64
2023-03-04T08:29:29.344Z,56.19
2023-03-04T08:30:31.057Z,54.75
2023-03-04T08:31:33.215Z,53.55
2023-03-04T08:32:34.992Z,54.41
2023-03-04T08:33:36.676Z,53.76
2023-03-04T08:34:39.918Z,53.90
2023-03-04T08:35:41.539Z,53.60
2023-03-04T08:36:43.229Z,55.31
2023-03-04T08:37:46.048Z,53.91
2023-03-04T08:38:47.660Z,53.43
2023-03-04T08:39:49.252Z,51.79
2023-03-04T08:40:55.170Z,50.26
2023-03-04T08:41:56.751Z,49.48
2023-03-04T08:42:58.396Z,47.36
2023-03-04T08:44:00.798Z,46.75
2023-03-04T08:45:02.270Z,45.77
2023-03-04T08:46:04.824Z,44.90
2023-03-04T08:47:09.246Z,46.85
2023-03-04T08:48:11.530Z,45.66
2023-03-04T08:49:14.539Z,46.14
2023-03-04T08:50:16.443Z,44.00
2023-03-04T08:51:18.667Z,45.98
2023-03-04T08:52:20.314Z,45.13
2023-03-04T08:53:22.180Z,46.57
2023-03-04T08:54:23.774Z,44.68
2023-03-04T08:55:25.349Z,44.25
2023-03-04T08:56:26.955Z,44.31
2023-03-04T08:57:28.879Z,44.25
2023-03-04T08:58:30.588Z,44.90
2023-03-04T08:59:32.167Z,44.35
2023-03-04T09:00:35.409Z,43.35
2023-03-04T09:01:37.097Z,44.24
2023-03-04T09:02:38.766Z,43.88
2023-03-04T09:03:41.058Z,44.49
2023-03-04T09:04:42.680Z,44.48
2023-03-04T09:05:45.291Z,42.62
2023-03-04T09:06:46.927Z,42.23
2023-03-04T09:07:48.570Z,42.96
2023-03-04T09:08:50.286Z,43.43
2023-03-04T09:09:51.897Z,43.80
2023-03-04T09:10:54.690Z,45.90
2023-03-04T09:11:56.323Z,44.10
2023-03-04T09:12:58.530Z,46.09
2023-03-04T09:14:00.274Z,47.77
2023-03-04T09:15:11.153Z,49.01
2023-03-04T09:16:14.908Z,49.68
2023-03-04T09:17:16.647Z,49.11
2023-03-04T09:18:19.417Z,51.41
2023-03-04T09:19:21.022Z,48.34
2023-03-04T09:20:23.192Z,48.10
2023-03-04T09:21:24.849Z,48.60
2023-03-04T09:22:26.427Z,50.47
2023-03-04T09:23:28.034Z,48.20
2023-03-04T09:24:31.092Z,50.48
2023-03-04T09:25:33.088Z,49.43
2023-03-04T09:26:34.685Z,51.63
2023-03-04T09:27:36.360Z,50.24
2023-03-04T09:28:37.967Z,50.16
2023-03-04T09:29:39.683Z,50.34
2023-03-04T09:30:41.518Z,49.03
2023-03-04T09:31:43.352Z,51.44
2023-03-04T09:32:45.139Z,50.09
2023-03-04T09:33:46.939Z,49.58
2023-03-04T09:34:48.567Z,49.00
2023-03-04T09:35:50.390Z,49.71
2023-03-04T09:36:52.021Z,46.44
2023-03-04T09:37:54.255Z,49.49
2023-03-04T09:38:59.903Z,48.47
2023-03-04T09:40:01.666Z,50.59
2023-03-04T09:41:06.491Z,50.31
2023-03-04T09:42:09.753Z,50.01
2023-03-04T09:43:32.002Z,51.33
2023-03-04T09:44:37.179Z,50.73
2023-03-04T09:45:45.738Z,53.40
2023-03-04T09:46:47.267Z,52.70
2023-03-04T09:47:51.551Z,50.91
2023-03-04T09:48:55.377Z,50.63
2023-03-04T09:50:00.382Z,51.57
2023-03-04T09:51:16.961Z,49.51
2023-03-04T09:52:21.508Z,51.10
2023-03-04T09:53:29.041Z,47.96
2023-03-04T09:54:45.470Z,48.10
2023-03-04T09:55:50.886Z,46.45
2023-03-04T09:56:57.765Z,47.43
2023-03-04T09:58:18.040Z,46.32
2023-03-04T09:59:31.039Z,45.12
2023-03-04T10:00:44.629Z,45.65
2023-03-04T10:01:50.840Z,46.01
2023-03-04T10:03:15.484Z,45.86
2023-03-04T10:04:26.129Z,45.47
2023-03-04T10:05:29.846Z,46.87
2023-03-04T10:06:31.962Z,44.73
2023-03-04T10:07:37.301Z,45.65
2023-03-04T10:08:47.772Z,45.61
2023-03-04T10:10:10.592Z,47.06
2023-03-04T10:11:25.552Z,44.17
2023-03-04T10:12:30.462Z,44.46
2023-03-04T10:13:43.621Z,45.84
2023-03-04T10:14:47.078Z,46.69
2023-03-04T10:15:51.131Z,47.59
2023-03-04T10:17:16.713Z,45.65
2023-03-04T10:18:24.888Z,43.60
2023-03-04T10:19:53.184Z,43.83
2023-03-04T10:21:17.559Z,42.81
2023-03-04T10:22:36.988Z,42.11
2023-03-04T10:23:39.943Z,42.26
2023-03-04T10:24:41.528Z,43.32
2023-03-04T10:25:46.751Z,43.02
2023-03-04T10:26:52.288Z,43.65
2023-03-04T10:28:02.977Z,40.75
2023-03-04T10:29:07.142Z,39.83
2023-03-04T10:30:36.511Z,41.95
2023-03-04T10:31:38.551Z,39.47
2023-03-04T10:32:46.142Z,41.12
2023-03-04T10:33:47.859Z,40.95
2023-03-04T10:34:49.481Z,41.58
2023-03-04T10:35:56.277Z,41.08
2023-03-04T10:37:07.439Z,40.80
2023-03-04T10:38:09.965Z,40.70
2023-03-04T10:39:32.354Z,42.00
2023-03-04T10:40:38.885Z,41.29
2023-03-04T10:41:46.140Z,39.68
2023-03-04T10:42:49.904Z,39.69
2023-03-04T10:44:18.011Z,42.04
2023-03-04T10:45:25.580Z,41.87
2023-03-04T10:46:27.306Z,40.11
2023-03-04T10:47:31.304Z,42.91
2023-03-04T10:48:32.951Z,41.38
2023-03-04T10:49:35.050Z,42.03
2023-03-04T10:50:36.678Z,40.23
2023-03-04T10:51:49.405Z,40.15
2023-03-04T10:52:53.034Z,41.89
2023-03-04T10:54:10.723Z,42.96
2023-03-04T10:55:17.972Z,43.46
2023-03-04T10:56:31.597Z,43.65
2023-03-04T10:57:36.493Z,43.90
2023-03-04T10:58:38.079Z,43.87
2023-03-04T10:59:56.929Z,44.20
2023-03-04T11:01:05.966Z,46.68
2023-03-04T11:02:18.214Z,45.51
2023-03-04T11:03:29.841Z,45.26
2023-03-04T11:04:34.526Z,46.06
2023-03-04T11:05:36.226Z,46.07
2023-03-04T11:06:41.332Z,47.59
2023-03-04T11:07:55.674Z,48.15
2023-03-04T11:08:59.746Z,49.30
2023-03-04T11:10:11.628Z,49.33
2023-03-04T11:11:27.812Z,49.10
2023-03-04T11:12:34.416Z,49.80
2023-03-04T11:13:36.039Z,47.65
2023-03-04T11:14:49.013Z,47.09
2023-03-04T11:16:03.831Z,46.62
2023-03-04T11:17:41.290Z,47.96
2023-03-04T11:18:47.463Z,48.29
2023-03-04T11:19:54.751Z,46.55
2023-03-04T11:20:57.728Z,45.28
2023-03-04T11:22:00.264Z,45.42
2023-03-04T11:23:05.669Z,46.68
2023-03-04T11:24:28.032Z,44.97
2023-03-04T11:25:33.890Z,46.30
2023-03-04T11:26:40.653Z,46.95
2023-03-04T11:27:45.755Z,45.60
2023-03-04T11:28:52.620Z,46.04
2023-03-04T11:30:15.950Z,48.37
2023-03-04T11:31:24.964Z,46.60
2023-03-04T11:32:26.602Z,47.30
2023-03-04T11:33:53.395Z,47.68
2023-03-04T11:34:54.916Z,47.30
2023-03-04T11:36:23.912Z,46.28
2023-03-04T11:37:41.368Z,49.19
2023-03-04T11:38:48.342Z,48.94
2023-03-04T11:39:54.986Z,48.86
2023-03-04T11:41:04.318Z,48.44
2023-03-04T11:42:37.134Z,50.33
2023-03-04T11:43:39.785Z,50.42
2023-03-04T11:44:41.606Z,52.43
2023-03-04T11:46:08.013Z,53.46
2023-03-04T11:47:49.174Z,54.99
2023-03-04T11:49:17.698Z,53.92
2023-03-04T11:50:25.335Z,54.13
2023-03-04T11:51:45.096Z,55.44
2023-03-04T11:53:12.507Z,54.21
2023-03-04T11:54:49.222Z,55.14
2023-03-04T11:55:56.277Z,53.75
2023-03-04T11:57:03.193Z,54.38
2023-03-04T11:58:07.739Z,53.58
2023-03-04T11:59:21.686Z,56.95
2023-03-04T12:01:07.393Z,56.41
2023-03-04T12:02:18.217Z,55.06
2023-03-04T12:03:34.808Z,56.07
2023-03-04T12:05:01.488Z,58.87
2023-03-04T12:06:11.723Z,56.36
2023-03-04T12:07:22.734Z,55.59
2023-03-04T12:08:33.369Z,54.29
2023-03-04T12:09:43.952Z,55.61
2023-03-04T12:11:05.147Z,56.45
2023-03-04T12:12:29.727Z,53.62
2023-03-04T12:13:37.288Z,55.24
2023-03-04T12:14:54.162Z,56.35
2023-03-04T12:16:14.460Z,56.33
2023-03-04T12:17:29.144Z,56.32
2023-03-04T12:18:33.920Z,57.16
2023-03-04T12:20:14.347Z,56.50
2023-03-04T12:21:16.039Z,56.39
2023-03-04T12:22:23.048Z,56.56
2023-03-04T12:24:04.402Z,57.80
2023-03-04T12:25:19.329Z,57.67
2023-03-04T12:26:44.820Z,57.17
2023-03-04T12:28:16.204Z,57.95
2023-03-04T12:29:28.136Z,56.91
2023-03-04T12:30:48.960Z,57.38
2023-03-04T12:31:56.537Z,58.84
2023-03-04T12:33:04.125Z,58.22
2023-03-04T12:34:08.709Z,61.43
2023-03-04T12:35:19.615Z,58.85
2023-03-04T12:36:43.062Z,58.45
2023-03-04T12:37:44.572Z,58.59
2023-03-04T12:38:56.363Z,59.19
2023-03-04T12:40:06.849Z,59.23
2023-03-04T12:41:28.256Z,59.71
2023-03-04T12:42:57.702Z,58.59
2023-03-04T12:44:13.987Z,59.01
2023-03-04T12:45:25.347Z,58.30
2023-03-04T12:46:51.843Z,58.64
2023-03-04T12:48:02.464Z,60.96
2023-03-04T12:49:35.483Z,61.44
2023-03-04T12:50:46.278Z,60.50
2023-03-04T12:51:56.928Z,59.52
2023-03-04T12:53:17.504Z,59.52
2023-03-04T12:54:19.148Z,61.05
2023-03-04T12:55:26.872Z,59.77
2023-03-04T12:56:37.158Z,58.87
2023-03-04T12:57:40.466Z,60.62
2023-03-04T12:58:42.098Z,61.22
2023-03-04T12:59:55.674Z,61.56
2023-03-04T13:01:03.749Z,62.43
2023-03-04T13:02:07.224Z,61.04
2023-03-04T13:03:40.745Z,61.16
2023-03-04T13:04:54.010Z,60.42
2023-03-04T13:06:05.576Z,62.44
2023-03-04T13:07:39.863Z,60.16
2023-03-04T13:08:59.505Z,61.77
2023-03-04T13:10:27.796Z,62.83
2023-03-04T13:11:29.854Z,60.57
2023-03-04T13:12:50.054Z,62.44
2023-03-04T13:14:05.334Z,61.86
2023-03-04T13:15:06.962Z,61.40
2023-03-04T13:16:11.638Z,61.65
2023-03-04T13:17:40.939Z,61.22
2023-03-04T13:18:45.133Z,61.27
2023-03-04T13:19:49.460Z,63.06
2023-03-04T13:21:11.717Z,62.24
2023-03-04T13:22:38.257Z,61.85
2023-03-04T13:23:40.477Z,61.66
2023-03-04T13:24:47.110Z,62.64
2023-03-04T13:25:50.855Z,61.17
2023-03-04T13:26:52.667Z,63.16
2023-03-04T13:28:03.007Z,61.55
2023-03-04T13:29:32.807Z,61.76
2023-03-04T13:30:34.519Z,62.51
2023-03-04T13:32:01.953Z,62.83
2023-03-04T13:33:09.592Z,61.99
2023-03-04T13:34:47.198Z,61.37
2023-03-04T13:35:54.541Z,62.58
2023-03-04T13:36:56.508Z,63.15
2023-03-04T13:37:59.550Z,61.78
2023-03-04T13:39:24.628Z,61.86
2023-03-04T13:40:38.069Z,61.17
2023-03-04T13:41:50.621Z,60.64
2023-03-04T13:42:52.492Z,61.60
2023-03-04T13:44:00.913Z,62.19
2023-03-04T13:45:02.829Z,62.34
2023-03-04T13:46:19.658Z,62.74
2023-03-04T13:47:23.082Z,61.84
2023-03-04T13:48:31.418Z,62.65
2023-03-04T13:49:33.043Z,61.74
2023-03-04T13:50:38.542Z,62.81
2023-03-04T13:51:45.125Z,62.59
2023-03-04T13:52:46.875Z,62.24
2023-03-04T13:53:55.277Z,62.94
2023-03-04T13:55:34.004Z,61.47
2023-03-04T13:56:42.552Z,62.47
2023-03-04T13:57:51.258Z,60.23